Aérodrome :
LOGIN :

S'inscrire | Disclaimer

   EN    FR    IT 

 










Légende :    VFR   VFR Marginal   IFR   IFR Intensif   IFR Très Intensif
Visi : 
Plafond : 
>= 8 km
>= 3000ft
5 à 8 km
1000 à 3000 ft
1500m à 5 km
500 à 1000 ft
800 à 1500m
200 à 500 ft
< 800m
< 200 ft
Symboles :   Orages  Brouillard  Fortes neiges  Fortes précipitations  Vent > 20 kt
SIGMETs :   Divers  Orages  Givrage  Turbulence  Onde Orograph.  Cendres Volcan.






- Altitude de l'aérodrome : 699 ft
- Code IATA : PAD


EDLP - Paderborn Lippstadt

DERNIER METAR :
  • 280750Z 18004KT 9999 FEW025 M00/M02 Q0996

METARs EXPIRÉS :
  • 280720Z 24003KT 200V280 9999 FEW023 M01/M02 Q0995
  • 280650Z 23003KT 9999 SCT026 M00/M02 Q0995
  • 280620Z 20003KT 9999 BKN026 M01/M02 Q0995
  • 280550Z 18004KT 9999 BKN027 M01/M03 Q0995
  • 280520Z VRB01KT 9999 OVC027 M01/M03 Q0995

TAF TAF EDLP
Valide du 28 à 06h jusqu'au 29 à 06h UTC


280500Z 2806/2906 18005KT 9999 BKN025
TEMPO 2808/2812 3000 BR BKN007
BECMG 2808/2811 26005KT
TEMPO 2812/2818 3000 -SHSNRA BKN004TCU
BECMG 2818/2821 BKN006
TEMPO 2821/2906 1200 BR BKN001



MET'MAP, la Météo Aéronautique d'un coup d'oeil ! - Copyright ORBIFLY Décembre 2007 - Disclaimer

ORBIFLY MET'MAP TEAM :

Programmation & Développement : Alexandra Zaïnal
Sur une idée originale de : Baudouin d'Aumeries
Assistance à la programmation : Marc-Olivier Méhu
Soutien technique & logistique : Manuel Goepfert

Contact : metmap@orbifly.com




SOURCES & CREDITS :

   NOAA